Wentworth, New Hampshire
Current Conditions -  °F | °C
As of 1:55 AM on Saturday 25 Oct 2014 (Local Time) from K1P1 Reporting Station
Clear Clear  
Wind Chill: 42°   Ceiling: Unl
Heat Index: 46°   Visibility: 10mi
Dew Point: 40°   Wind: 9mph
Humidity: 79%   Direction: 280°W
Pressure: 29.74"   Gusts: NA
Location:  43.87°N, 71.91°W
Report Text: K1P1 250555Z AUTO 28008KT 10SM CLR 08/05 A2974 RMK AO2 T00800046 10083 20075
Loading
Personal Weather Stations






























Interactive Weather Map
Tropical Storm Tracking
New forecast layout! Learn more

10-Day Weather Forecast

Advertisements
Track Severe Weather on mobile